Terminal Aerodrome Forecast
Issued by NWS Upton, NY

Home | Current Version | Previous Version | Text Only | Print | Product List | Glossary On
Versions: 1 2 3 4 5 6 7 8 9 10 11 12 13 14 15 16 17 18 19 20 21 22 23 24 25 26 27 28 29 30 31 32
000
FTUS41 KOKX 040700 AAA
TAFISP
TAF AMD
KISP 040743Z 0408/0506 24009KT P6SM OVC005 WS020/25055KT
      TEMPO 0408/0411 6SM BR OVC007
     FM041100 25008KT 3SM BR OVC005
      TEMPO 0412/0415 2SM -RA BR
     FM041700 25008KT 5SM -RA BR BKN010 BKN050
     FM050000 28005KT 4SM -RA BR OVC008=

USA.gov is the U.S. government's official web portal to all federal, state and local government web resources and services.